Terminal Aerodrome Forecast
Issued by NWS Cleveland, OH

Home | Current Version | Previous Version | Graphics & Text | Print | Product List | Glossary Off
Versions: 1 2 3 4 5 6 7 8 9 10 11 12 13 14 15 16 17 18 19

223
FTUS41 KCLE 281732
TAFTOL
TAF
KTOL 281732Z 2818/0118 17010KT 5SM HZ OVC025
     FM282200 19012KT 5SM HZ OVC015
     FM010200 20012G20KT 3SM -SHRA BR OVC008 WS020/22050KT
     FM010900 20012G20KT 5SM -SHRA BR OVC006
      TEMPO 0109/0111 23020G45KT 1SM +TSRA BR OVC003CB
     FM011300 22015KT P6SM OVC015=

USA.gov is the U.S. government's official web portal to all federal, state and local government web resources and services.